Latest Weather Observations for Moranbah Airport

IDQ60801

Issued at 8:22 am EST Tuesday 27 October 2020 (issued every 10 minutes, with the page automatically refreshed every 10 minutes)

About weather observations | Map of weather stations | Latest weather observations for QLD | Other Formats
Station Details ID: 034035 Name: MORANBAH AIRPORT Lat: -22.06 Lon: 148.08 Height: 232.2 m
Data from the previous 72 hours. | See also: Recent months at Moranbah Airport
Date/Time
EST
Temp
°C
App
Temp
°C
Dew
Point
°C
Rel
Hum
%
Delta-T
°C
Wind Press
QNH
hPa
Press
MSL
hPa
Rain since
9am
mm
Dir  Spd
km/h
Gust
km/h
Spd
kts
Gust
kts
27/08:00am 24.5 23.8 16.5 61 5.0 WNW 15 20 8 11 1014.7 1013.5 0.2
27/07:30am 23.8 23.6 16.6 64 4.5 NW 13 17 7 9 1014.5 1013.3 0.2
27/07:00am 23.2 23.8 16.7 67 4.0 NW 9 13 5 7 1014.3 1013.1 0.2
27/06:30am 22.4 23.4 16.9 71 3.4 WNW 7 11 4 6 1014.0 1012.8 0.2
27/06:00am 22.2 23.2 16.9 72 3.3 NNW 7 11 4 6 1013.6 1012.4 0.2
27/05:30am 21.7 22.2 16.6 73 3.1 NW 9 11 5 6 1013.0 1011.8 0.2
27/05:00am 21.9 22.8 16.6 72 3.3 NW 7 11 4 6 1012.4 1011.2 0.2
27/04:30am 22.3 22.1 16.8 71 3.4 NNW 13 15 7 8 1012.1 1010.9 0.2
27/04:00am 21.8 22.6 16.3 71 3.4 NNW 7 11 4 6 1012.0 1010.8 0.2
27/03:30am 22.1 23.2 16.6 71 3.4 NW 6 9 3 5 1011.9 1010.7 0.2
27/03:00am 22.3 23.3 16.3 69 3.7 WNW 6 7 3 4 1011.6 1010.4 0.2
27/02:30am 22.3 22.6 16.1 68 3.8 WNW 9 11 5 6 1011.8 1010.6 0.2
27/02:00am 22.8 23.5 16.1 66 4.1 NW 7 9 4 5 1011.7 1010.5 0.2
27/01:30am 23.2 23.9 16.0 64 4.4 NNW 7 9 4 5 1011.8 1010.6 0.2
27/01:00am 23.5 23.7 15.8 62 4.7 NNW 9 13 5 7 1012.5 1011.3 0.2
27/12:30am 23.9 23.2 15.4 59 5.2 NNW 13 20 7 11 1012.7 1011.5 0.2
27/12:00am 24.4 23.6 15.1 56 5.6 NNW 13 17 7 9 1012.9 1011.7 0.2
 
Date/Time
EST
Temp
°C
App
Temp
°C
Dew
Point
°C
Rel
Hum
%
Delta-T
°C
Wind Press
QNH
hPa
Press
MSL
hPa
Rain since
9am
mm
Dir  Spd
km/h
Gust
km/h
Spd
kts
Gust
kts
26/11:30pm 24.7 23.8 14.8 54 6.0 NNW 13 19 7 10 1013.1 1011.9 0.2
26/11:00pm 25.1 23.8 14.9 53 6.2 NW 15 20 8 11 1013.5 1012.3 0.2
26/10:30pm 25.0 24.5 15.0 53 6.1 NNW 11 13 6 7 1013.8 1012.6 0.2
26/10:00pm 25.2 24.7 14.9 52 6.2 NNW 11 15 6 8 1013.6 1012.4 0.2
26/09:30pm 25.7 24.9 15.1 52 6.4 NNW 13 20 7 11 1013.5 1012.3 0.2
26/09:00pm 26.1 24.2 15.8 53 6.3 N 20 32 11 17 1013.2 1012.0 0.2
26/08:30pm 26.4 25.1 15.8 52 6.5 N 17 24 9 13 1013.0 1011.8 0.2
26/08:00pm 26.6 24.5 15.3 50 6.9 NNE 20 24 11 13 1012.4 1011.2 0.2
26/07:30pm 27.6 25.2 14.3 44 8.0 NE 20 28 11 15 1011.4 1010.2 0.2
26/07:00pm 29.5 27.8 11.1 32 10.7 SW 11 13 6 7 1010.7 1009.5 0.2
26/06:30pm 30.3 28.5 10.8 30 11.3 SSW 11 15 6 8 1010.2 1009.0 0.2
26/06:00pm 31.2 28.8 10.0 27 12.2 WSW 13 20 7 11 1009.9 1008.7 0.2
26/05:30pm 31.8 28.6 9.9 26 12.6 SW 17 24 9 13 1009.3 1008.1 0.2
26/05:00pm 32.4 29.2 9.9 25 13.0 WSW 17 28 9 15 1008.8 1007.6 0.2
26/04:30pm 33.4 29.5 9.4 23 13.8 WSW 20 32 11 17 1008.4 1007.1 0.2
26/04:00pm 33.1 29.7 9.2 23 13.7 WSW 17 26 9 14 1008.0 1006.7 0.2
26/03:30pm 33.1 30.2 9.8 24 13.4 W 15 22 8 12 1008.3 1007.0 0.2
26/03:00pm 32.9 29.6 9.7 24 13.4 W 17 28 9 15 1008.4 1007.1 0.2
26/02:30pm 33.3 28.8 10.0 24 13.5 WSW 24 37 13 20 1008.7 1007.5 0.2
26/02:00pm 32.7 29.3 10.7 26 12.9 W 19 26 10 14 1008.9 1007.7 0.2
26/01:30pm 32.9 30.1 11.4 27 12.7 WNW 17 28 9 15 1009.3 1008.1 0.2
26/01:00pm 31.8 32.5 16.1 38 9.9 SSW 7 17 4 9 1009.9 1008.7 0.2
26/12:48pm 30.1 31.2 16.5 44 8.6 S 6 9 3 5 1010.1 1008.9 0.2
26/12:32pm 31.2 29.4 14.4 36 10.3 NW 17 28 9 15 1010.6 1009.4 0.0
26/12:30pm 31.4 29.2 13.2 33 11.0 NW 17 28 9 15 1010.6 1009.4 0.0
26/12:00pm 31.5 30.1 13.3 33 11.0 NW 13 24 7 13 1010.8 1009.6 0.0
26/11:30am 31.3 30.7 13.6 34 10.7 W 9 13 5 7 1011.2 1010.0 0.0
26/11:00am 30.9 29.6 13.7 35 10.5 W 13 24 7 13 1011.7 1010.5 0.0
26/10:30am 31.3 31.0 14.4 35 10.4 NNW 9 15 5 8 1012.0 1010.8 0.0
26/10:00am 31.2 30.7 13.9 35 10.6 N 9 28 5 15 1012.3 1011.0 0.0
26/09:30am 30.2 30.1 15.9 42 9.0 N 11 19 6 10 1012.5 1011.3 0.0
26/09:00am 28.7 29.6 16.6 48 7.6 NNE 7 13 4 7 1012.7 1011.5 0.0
26/08:30am 27.1 27.9 17.3 55 6.2 NW 9 17 5 9 1012.8 1011.6 0.0
26/08:00am 25.7 27.1 18.6 65 4.6 WNW 9 13 5 7 1012.4 1011.2 0.0
26/07:30am 24.3 26.0 20.2 78 2.7 N 11 13 6 7 1012.4 1011.2 0.0
26/07:00am 22.5 24.3 18.7 79 2.4 NNW 7 9 4 5 1012.3 1011.0 0.0
26/06:30am 20.6 23.4 18.0 85 1.6 CALM 0 0 0 0 1011.9 1010.7 0.0
26/06:00am 18.8 20.9 17.3 91 0.9 WSW 2 6 1 3 1011.7 1010.5 0.0
26/05:30am 18.3 20.4 17.3 94 0.6 SE 2 9 1 5 1011.6 1010.4 0.0
26/05:00am 18.0 19.1 16.5 91 0.9 SE 6 9 3 5 1011.2 1010.0 0.0
26/04:30am 18.2 20.3 16.2 88 1.2 CALM 0 0 0 0 1010.9 1009.7 0.0
26/04:00am 18.6 20.7 16.2 86 1.4 CALM 0 4 0 2 1010.4 1009.2 0.0
26/03:30am 19.5 19.8 17.1 86 1.5 ESE 11 13 6 7 1010.2 1009.0 0.0
26/03:00am 19.4 19.6 15.7 79 2.2 SSE 9 13 5 7 1010.4 1009.2 0.0
26/02:30am 20.1 20.0 14.0 68 3.6 SSW 7 11 4 6 1010.4 1009.2 0.0
26/02:00am 20.4 20.8 13.6 65 3.9 SE 4 11 2 6 1010.6 1009.4 0.0
26/01:30am 20.8 19.8 13.3 62 4.3 NNE 11 13 6 7 1010.9 1009.7 0.0
26/01:00am 21.8 21.5 13.2 58 5.0 ESE 7 9 4 5 1010.9 1009.7 0.0
26/12:30am 21.7 20.8 12.5 56 5.3 ESE 9 13 5 7 1011.1 1009.9 0.0
26/12:00am 22.3 22.2 13.4 57 5.2 S 6 6 3 3 1011.2 1010.0 0.0
 
Date/Time
EST
Temp
°C
App
Temp
°C
Dew
Point
°C
Rel
Hum
%
Delta-T
°C
Wind Press
QNH
hPa
Press
MSL
hPa
Rain since
9am
mm
Dir  Spd
km/h
Gust
km/h
Spd
kts
Gust
kts
25/11:30pm 22.4 22.3 13.2 56 5.3 S 6 9 3 5 1011.3 1010.1 0.0
25/11:00pm 23.8 23.3 12.1 48 6.7 SSE 6 7 3 4 1011.2 1010.0 0.0
25/10:30pm 24.0 23.7 13.2 50 6.3 S 7 11 4 6 1011.3 1010.1 0.0
25/10:00pm 24.7 24.2 12.6 47 7.0 SW 7 11 4 6 1011.1 1009.9 0.0
25/09:30pm 24.8 24.3 12.7 47 7.1 SSW 7 11 4 6 1010.8 1009.6 0.0
25/09:00pm 25.7 24.4 12.5 44 7.7 SW 11 13 6 7 1010.7 1009.5 0.0
25/08:30pm 26.7 25.7 12.4 41 8.4 SSW 9 11 5 6 1010.4 1009.2 0.0
25/08:00pm 27.8 26.8 12.2 38 9.1 SSW 9 13 5 7 1010.1 1008.9 0.0
25/07:30pm 28.7 27.3 12.2 36 9.7 SW 11 15 6 8 1009.8 1008.6 0.0
25/07:00pm 29.0 28.0 12.4 36 9.8 SW 9 13 5 7 1009.7 1008.5 0.0
25/06:30pm 30.2 28.6 11.7 32 10.9 WSW 11 15 6 8 1009.4 1008.2 0.0
25/06:00pm 31.3 29.4 11.7 30 11.6 SW 13 19 7 10 1009.3 1008.1 0.0
25/05:30pm 32.4 29.8 12.1 29 12.1 WSW 17 28 9 15 1008.9 1007.7 0.0
25/05:00pm 32.3 29.3 12.5 30 11.9 SW 20 32 11 17 1008.6 1007.4 0.0
25/04:30pm 33.5 30.0 10.8 25 13.3 WSW 20 32 11 17 1008.2 1006.9 0.0
25/04:00pm 32.8 29.5 10.8 26 12.9 W 19 32 10 17 1008.2 1006.9 0.0
25/03:30pm 34.2 29.7 11.4 25 13.5 W 26 41 14 22 1008.2 1006.9 0.0
25/03:12pm 34.0 29.1 11.2 25 13.5 W 28 48 15 26 1008.3 1007.0 0.0
25/03:00pm 34.4 30.1 12.1 26 13.4 WNW 26 41 14 22 1008.3 1007.0 0.0
25/02:30pm 33.7 30.0 12.7 28 12.7 W 24 37 13 20 1008.7 1007.5 0.0
25/02:00pm 34.0 31.4 15.0 32 11.9 W 22 35 12 19 1009.1 1007.9 0.0
25/01:30pm 33.1 30.0 15.6 35 11.0 WNW 26 37 14 20 1009.7 1008.5 0.0
25/01:00pm 32.3 29.6 15.7 36 10.4 WNW 24 39 13 21 1010.2 1009.0 0.0
25/12:30pm 33.6 31.4 16.9 37 10.7 WNW 24 35 13 19 1010.8 1009.6 0.0
25/12:00pm 31.4 30.0 16.9 41 9.3 NW 20 37 11 20 1011.3 1010.1 0.0
25/11:30am 30.4 29.0 17.1 44 8.5 NW 20 35 11 19 1011.8 1010.6 0.0
25/11:00am 31.0 30.2 17.0 43 8.9 NW 17 26 9 14 1012.0 1010.8 0.0
25/10:30am 30.0 29.6 18.1 49 7.7 WNW 17 28 9 15 1012.5 1011.3 0.0
25/10:00am 28.3 27.4 17.8 53 6.7 WNW 19 26 10 14 1012.8 1011.6 0.0
25/09:30am 28.1 27.7 18.8 57 6.0 NW 19 26 10 14 1013.1 1011.9 0.0
25/09:00am 26.8 26.4 18.9 62 5.1 WNW 19 28 10 15 1013.3 1012.1 0.2
25/08:30am 26.0 26.3 19.6 68 4.2 WNW 17 26 9 14 1013.5 1012.3 0.2
25/08:00am 25.2 25.8 20.2 74 3.3 NW 17 22 9 12 1013.4 1012.2 0.2
25/07:30am 24.0 25.4 20.3 80 2.4 NNW 13 17 7 9 1013.1 1011.9 0.2
25/07:00am 23.4 25.1 20.2 82 2.1 N 11 15 6 8 1013.0 1011.8 0.2
25/06:30am 23.0 25.4 20.1 84 1.9 NNW 7 11 4 6 1012.6 1011.4 0.2
25/06:00am 22.7 24.9 19.7 83 1.9 NNW 7 9 4 5 1012.3 1011.0 0.2
25/05:30am 22.4 25.4 19.2 82 2.1 W 2 9 1 5 1011.7 1010.5 0.2
25/05:00am 22.1 25.2 18.7 81 2.2 CALM 0 0 0 0 1011.3 1010.1 0.2
25/04:30am 22.5 25.2 18.7 79 2.4 W 2 6 1 3 1011.2 1010.0 0.2
25/04:00am 22.5 24.5 18.7 79 2.4 SW 6 11 3 6 1010.9 1009.7 0.2
25/03:30am 22.6 24.3 18.6 78 2.5 W 7 11 4 6 1010.7 1009.5 0.2
25/03:00am 22.7 24.4 18.5 77 2.7 WNW 7 11 4 6 1010.3 1009.1 0.2
25/02:30am 22.6 24.5 18.6 78 2.5 N 6 9 3 5 1010.0 1008.8 0.2
25/02:00am 22.5 23.6 18.9 80 2.3 N 11 13 6 7 1010.5 1009.3 0.2
25/01:30am 22.5 24.0 18.9 80 2.3 N 9 15 5 8 1010.9 1009.7 0.2
25/01:00am 22.7 22.7 18.9 79 2.4 N 17 20 9 11 1011.1 1009.9 0.2
25/12:30am 23.1 24.1 18.6 76 2.9 NNW 11 17 6 9 1011.9 1010.7 0.2
25/12:00am 22.5 24.5 19.1 81 2.2 NE 7 13 4 7 1012.1 1010.9 0.2
 
Date/Time
EST
Temp
°C
App
Temp
°C
Dew
Point
°C
Rel
Hum
%
Delta-T
°C
Wind Press
QNH
hPa
Press
MSL
hPa
Rain since
9am
mm
Dir  Spd
km/h
Gust
km/h
Spd
kts
Gust
kts
24/11:30pm 22.3 23.4 18.9 81 2.2 ENE 11 15 6 8 1012.1 1010.9 0.2
24/11:00pm 22.2 23.6 18.6 80 2.3 ESE 9 11 5 6 1012.3 1011.0 0.2
24/10:30pm 22.6 24.0 18.6 78 2.5 NNW 9 11 5 6 1011.7 1010.5 0.2
24/10:00pm 22.8 23.8 18.6 77 2.7 N 11 15 6 8 1011.8 1010.6 0.2
24/09:30pm 22.6 24.1 18.8 79 2.4 NNE 9 15 5 8 1011.5 1010.3 0.2
24/09:00pm 23.0 23.0 18.1 74 3.1 NNE 15 20 8 11 1011.0 1009.8 0.2
24/08:30pm 23.9 22.7 17.6 68 4.0 W 20 43 11 23 1011.3 1010.1 0.2
24/08:17pm 25.8 24.5 16.9 58 5.6 NNW 19 56 10 30 1010.9 1009.7 0.2
24/08:00pm 27.2 28.7 17.7 56 6.1 NNE 6 9 3 5 1009.6 1008.4 0.2
24/07:30pm 28.1 28.3 15.7 46 7.7 NNE 9 11 5 6 1009.4 1008.2 0.2
24/07:00pm 28.2 28.4 15.8 47 7.7 NE 9 9 5 5 1009.2 1008.0 0.2
24/06:30pm 28.9 30.3 15.4 44 8.3 N 2 11 1 6 1009.1 1007.9 0.2
24/06:00pm 30.4 30.2 13.7 36 10.1 NW 7 9 4 5 1009.0 1007.8 0.2
24/05:30pm 31.4 32.4 15.4 38 10.0 NNW 4 11 2 6 1008.7 1007.5 0.2
24/05:00pm 31.2 31.9 15.6 39 9.8 NE 6 13 3 7 1008.7 1007.5 0.2
24/04:30pm 31.1 30.8 15.5 39 9.7 NNW 11 19 6 10 1008.7 1007.5 0.2
24/04:00pm 31.9 32.5 17.8 43 9.1 NW 11 22 6 12 1008.9 1007.7 0.2
24/03:30pm 31.9 32.4 17.4 42 9.3 NNW 11 20 6 11 1009.2 1008.0 0.2
24/03:00pm 30.6 30.2 16.2 41 9.1 NW 13 20 7 11 1009.6 1008.4 0.2
24/02:30pm 29.9 29.4 17.0 45 8.2 NNW 15 28 8 15 1010.0 1008.8 0.2
24/02:00pm 29.4 30.1 17.9 50 7.4 N 11 22 6 12 1010.2 1009.0 0.2
24/01:30pm 28.1 29.2 17.9 54 6.5 NNW 9 17 5 9 1010.6 1009.4 0.0
24/01:00pm 27.6 29.8 19.1 59 5.5 NW 6 13 3 7 1011.3 1010.1 0.0
24/12:30pm 26.7 28.5 18.8 62 5.1 NW 7 13 4 7 1011.9 1010.7 0.0
24/12:00pm 26.2 28.4 19.1 65 4.6 NNW 6 13 3 7 1012.5 1011.3 0.0
24/11:30am 25.6 27.9 19.5 69 4.0 NNE 6 13 3 7 1012.1 1010.9 0.0
24/11:00am 24.9 26.6 20.2 75 3.1 NNE 11 15 6 8 1013.0 1011.8 0.0
24/10:30am 24.5 26.8 19.8 75 3.1 NE 7 11 4 6 1013.9 1012.7 0.0
24/10:00am 23.9 26.4 19.8 78 2.7 ENE 6 13 3 7 1014.2 1013.0 0.0
24/09:30am 22.6 25.8 18.8 79 2.4 CALM 0 6 0 3 1014.8 1013.6 0.0
24/09:00am 21.8 23.7 19.0 84 1.8 NNW 7 11 4 6 1014.6 1013.4 13.6
24/08:30am 20.9 22.0 19.7 93 0.8 W 13 20 7 11 1015.7 1014.5 13.6
24/08:28am 20.9 22.4 19.7 93 0.8 W 11 19 6 10 1015.7 1014.5 13.6

Other formats

Comma delimited format used in spreadsheet applications
http://www.bom.gov.au/fwo/IDQ60801/IDQ60801.94397.axf

JavaScript Object Notation format (JSON) in row-major order
http://www.bom.gov.au/fwo/IDQ60801/IDQ60801.94397.json

Data quality

Most of these data are generated automatically and are frequently updated. Quality checks on data are not normally performed. It is possible for incorrect values to appear. Refer to information at About Latest Weather Observations and please check the disclaimer before using these data.